createdAt,value
2018-04-07T00:00:55.375Z,18.70
2018-04-07T00:03:23.119Z,17.53
2018-04-07T00:05:51.683Z,16.67
2018-04-07T00:08:19.394Z,17.37
2018-04-07T00:10:47.113Z,15.43
2018-04-07T00:13:14.851Z,15.27
2018-04-07T00:15:42.589Z,15.77
2018-04-07T00:18:10.369Z,15.53
2018-04-07T00:20:38.156Z,15.30
2018-04-07T00:23:05.965Z,15.97
2018-04-07T00:25:33.708Z,15.97
2018-04-07T00:28:01.500Z,14.87
2018-04-07T00:30:29.204Z,15.47
2018-04-07T00:32:56.945Z,15.57
2018-04-07T00:35:24.622Z,15.23
2018-04-07T00:37:52.382Z,14.83
2018-04-07T00:40:20.250Z,14.43
2018-04-07T00:42:48.841Z,15.70
2018-04-07T00:45:16.523Z,15.57
2018-04-07T00:47:44.978Z,14.67
2018-04-07T00:50:12.679Z,15.40
2018-04-07T00:52:52.289Z,14.73
2018-04-07T00:55:20.003Z,15.77
2018-04-07T00:57:48.240Z,15.40
2018-04-07T01:00:16.002Z,15.50
2018-04-07T01:02:44.293Z,16.13
2018-04-07T01:05:12.003Z,15.20
2018-04-07T01:07:39.663Z,15.10
2018-04-07T01:10:07.460Z,14.63
2018-04-07T01:12:35.271Z,15.33
2018-04-07T01:15:03.397Z,14.93
2018-04-07T01:17:31.069Z,13.87
2018-04-07T01:19:58.802Z,14.67
2018-04-07T01:22:26.551Z,15.73
2018-04-07T01:24:54.319Z,13.77
2018-04-07T01:27:22.138Z,14.63
2018-04-07T01:29:49.921Z,14.20
2018-04-07T01:32:18.128Z,14.20
2018-04-07T01:34:45.850Z,14.73
2018-04-07T01:37:13.661Z,15.60
2018-04-07T01:39:41.386Z,13.97
2018-04-07T01:42:09.214Z,12.87
2018-04-07T01:44:36.908Z,13.03
2018-04-07T01:47:04.628Z,12.80
2018-04-07T01:49:32.383Z,12.70
2018-04-07T01:52:00.098Z,13.47
2018-04-07T01:54:27.785Z,14.00
2018-04-07T01:56:56.723Z,12.60
2018-04-07T01:59:24.593Z,13.10
2018-04-07T02:01:52.316Z,12.53
2018-04-07T02:04:20.054Z,12.37
2018-04-07T02:06:47.884Z,12.10
2018-04-07T02:09:15.560Z,11.80
2018-04-07T02:11:43.289Z,12.03
2018-04-07T02:14:11.691Z,12.23
2018-04-07T02:16:39.420Z,12.63
2018-04-07T02:19:07.134Z,13.37
2018-04-07T02:21:35.284Z,12.30
2018-04-07T02:24:03.066Z,13.27
2018-04-07T02:26:30.824Z,12.27
2018-04-07T02:28:58.585Z,12.80
2018-04-07T02:31:26.308Z,12.10
2018-04-07T02:33:54.093Z,12.70
2018-04-07T02:36:21.780Z,13.70
2018-04-07T02:38:49.509Z,12.30
2018-04-07T02:41:17.281Z,12.23
2018-04-07T02:43:44.991Z,12.30
2018-04-07T02:46:15.516Z,12.20
2018-04-07T02:48:43.280Z,11.90
2018-04-07T02:51:11.031Z,12.13
2018-04-07T02:53:38.813Z,11.87
2018-04-07T02:56:06.682Z,12.17
2018-04-07T02:58:34.413Z,11.57
2018-04-07T03:01:02.232Z,12.67
2018-04-07T03:03:29.914Z,12.30
2018-04-07T03:05:57.682Z,11.53
2018-04-07T03:08:26.698Z,11.50
2018-04-07T03:10:54.402Z,11.23
2018-04-07T03:13:22.839Z,11.20
2018-04-07T03:15:50.614Z,11.27
2018-04-07T03:18:18.344Z,11.77
2018-04-07T03:20:46.816Z,13.02
2018-04-07T03:23:14.619Z,11.80
2018-04-07T03:25:42.314Z,11.13
2018-04-07T03:28:10.086Z,11.23
2018-04-07T03:30:37.868Z,10.23
2018-04-07T03:33:05.634Z,13.57
2018-04-07T03:35:33.297Z,10.60
2018-04-07T03:38:01.131Z,11.37
2018-04-07T03:40:28.874Z,11.47
2018-04-07T03:42:57.220Z,10.87
2018-04-07T03:45:25.092Z,11.27
2018-04-07T03:47:52.827Z,10.70
2018-04-07T03:50:21.636Z,10.43
2018-04-07T03:52:49.359Z,11.63
2018-04-07T03:55:17.768Z,11.17
2018-04-07T03:57:45.467Z,11.13
2018-04-07T04:00:13.193Z,11.40
2018-04-07T04:02:41.045Z,10.67
2018-04-07T04:05:08.825Z,10.20
2018-04-07T04:07:36.504Z,10.97
2018-04-07T04:10:04.387Z,11.17
2018-04-07T04:12:32.177Z,10.73
2018-04-07T04:14:59.852Z,10.87
2018-04-07T04:17:27.632Z,10.10
2018-04-07T04:19:56.325Z,10.37
2018-04-07T04:22:23.983Z,9.73
2018-04-07T04:24:51.699Z,10.60
2018-04-07T04:27:19.362Z,9.50
2018-04-07T04:29:47.074Z,10.20
2018-04-07T04:32:14.846Z,10.07
2018-04-07T04:34:42.550Z,11.83
2018-04-07T04:37:10.365Z,10.77
2018-04-07T04:39:38.146Z,10.63
2018-04-07T04:42:07.524Z,10.57
2018-04-07T04:44:35.292Z,9.87
2018-04-07T04:47:02.949Z,10.43
2018-04-07T04:49:30.664Z,10.70
2018-04-07T04:51:58.327Z,10.20
2018-04-07T04:54:26.101Z,10.63
2018-04-07T04:56:53.831Z,10.33
2018-04-07T04:59:22.805Z,10.03
2018-04-07T05:01:50.453Z,10.50
2018-04-07T05:04:18.174Z,10.37
2018-04-07T05:06:48.407Z,10.53
2018-04-07T05:09:17.680Z,10.13
2018-04-07T05:11:45.431Z,10.50
2018-04-07T05:14:14.234Z,10.63
2018-04-07T05:16:41.989Z,9.73
2018-04-07T05:19:09.762Z,9.50
2018-04-07T05:21:37.549Z,9.73
2018-04-07T05:24:05.234Z,9.90
2018-04-07T05:26:33.033Z,9.33
2018-04-07T05:29:00.716Z,8.23
2018-04-07T05:31:28.382Z,9.23
2018-04-07T05:33:56.899Z,9.20
2018-04-07T05:36:24.622Z,8.93
2018-04-07T05:38:52.328Z,8.10
2018-04-07T05:41:20.733Z,7.43
2018-04-07T05:43:48.464Z,8.13
2018-04-07T05:46:16.176Z,8.10
2018-04-07T05:48:43.898Z,8.47
2018-04-07T05:51:11.576Z,9.00
2018-04-07T05:53:39.329Z,8.30
2018-04-07T05:56:07.085Z,8.73
2018-04-07T05:58:34.802Z,7.67
2018-04-07T06:01:02.478Z,6.90
2018-04-07T06:03:30.211Z,8.60
2018-04-07T06:05:58.016Z,8.60
2018-04-07T06:08:25.837Z,9.07
2018-04-07T06:10:53.537Z,9.63
2018-04-07T06:13:22.226Z,9.50
2018-04-07T06:15:49.952Z,8.47
2018-04-07T06:18:17.795Z,9.57
2018-04-07T06:20:45.529Z,8.77
2018-04-07T06:23:13.236Z,8.73
2018-04-07T06:25:40.911Z,9.13
2018-04-07T06:28:08.644Z,8.77
2018-04-07T06:30:36.349Z,8.50
2018-04-07T06:33:04.067Z,8.27
2018-04-07T06:35:31.786Z,8.33
2018-04-07T06:37:59.469Z,9.50
2018-04-07T06:40:27.206Z,9.30
2018-04-07T06:42:54.980Z,8.67
2018-04-07T06:45:22.690Z,9.07
2018-04-07T06:47:50.934Z,8.77
2018-04-07T06:50:19.640Z,8.93
2018-04-07T06:52:47.974Z,8.70
2018-04-07T06:55:16.735Z,8.23
2018-04-07T06:57:44.492Z,8.60
2018-04-07T07:00:12.162Z,8.00
2018-04-07T07:02:39.930Z,9.60
2018-04-07T07:05:07.699Z,8.47
2018-04-07T07:07:35.540Z,9.00
2018-04-07T07:10:03.348Z,8.30
2018-04-07T07:12:31.055Z,9.00
2018-04-07T07:14:58.769Z,8.87
2018-04-07T07:17:26.460Z,8.93
2018-04-07T07:19:54.282Z,9.17
2018-04-07T07:22:22.049Z,8.70
2018-04-07T07:24:49.787Z,7.70
2018-04-07T07:27:17.564Z,8.93
2018-04-07T07:29:45.337Z,8.13
2018-04-07T07:32:13.035Z,8.60
2018-04-07T07:34:40.719Z,8.87
2018-04-07T07:37:08.532Z,8.77
2018-04-07T07:39:36.318Z,7.77
2018-04-07T07:42:04.098Z,7.70
2018-04-07T07:44:31.822Z,8.00
2018-04-07T07:46:59.529Z,8.53
2018-04-07T07:49:27.268Z,8.90
2018-04-07T07:51:54.969Z,8.30
2018-04-07T07:54:22.737Z,7.90
2018-04-07T07:56:50.405Z,8.33
2018-04-07T07:59:18.071Z,7.93
2018-04-07T08:01:46.705Z,8.80
2018-04-07T08:04:14.426Z,7.87
2018-04-07T08:06:42.164Z,8.53
2018-04-07T08:09:09.907Z,8.40
2018-04-07T08:11:37.627Z,6.60
2018-04-07T08:14:05.307Z,6.60
2018-04-07T08:16:33.145Z,6.60
2018-04-07T08:19:00.824Z,7.00
2018-04-07T08:21:28.519Z,5.50
2018-04-07T08:23:56.229Z,6.53
2018-04-07T08:26:23.878Z,6.23
2018-04-07T08:28:51.598Z,6.57
2018-04-07T08:31:19.418Z,6.40
2018-04-07T08:33:47.084Z,6.63
2018-04-07T08:36:14.799Z,6.80
2018-04-07T08:38:42.551Z,6.70
2018-04-07T08:41:10.214Z,7.03
2018-04-07T08:43:38.008Z,6.43
2018-04-07T08:46:05.748Z,6.53
2018-04-07T08:48:33.588Z,6.00
2018-04-07T08:51:01.357Z,6.70
2018-04-07T08:53:29.296Z,6.33
2018-04-07T08:55:56.994Z,6.23
2018-04-07T08:58:24.952Z,6.70
2018-04-07T09:00:52.876Z,7.03
2018-04-07T09:03:20.904Z,7.03
2018-04-07T09:05:48.760Z,7.20
2018-04-07T09:08:16.475Z,7.23
2018-04-07T09:10:44.191Z,6.30
2018-04-07T09:13:11.902Z,7.30
2018-04-07T09:15:39.642Z,6.87
2018-04-07T09:18:07.308Z,6.80
2018-04-07T09:20:35.027Z,6.90
2018-04-07T09:23:02.720Z,7.27
2018-04-07T09:25:30.406Z,7.20
2018-04-07T09:27:58.126Z,6.37
2018-04-07T09:30:26.646Z,7.10
2018-04-07T09:32:54.514Z,6.90
2018-04-07T09:35:22.181Z,6.47
2018-04-07T09:37:49.959Z,7.20
2018-04-07T09:40:17.725Z,6.93
2018-04-07T09:42:45.471Z,6.30
2018-04-07T09:45:13.186Z,7.33
2018-04-07T09:47:40.848Z,6.60
2018-04-07T09:50:08.829Z,7.00
2018-04-07T09:52:36.577Z,7.97
2018-04-07T09:55:04.293Z,7.90
2018-04-07T09:57:32.025Z,8.47
2018-04-07T09:59:59.728Z,7.63
2018-04-07T10:02:35.973Z,7.80
2018-04-07T10:05:03.905Z,7.00
2018-04-07T10:07:31.619Z,7.50
2018-04-07T10:09:59.293Z,6.90
2018-04-07T10:12:26.961Z,6.93
2018-04-07T10:14:54.744Z,6.73
2018-04-07T10:17:22.474Z,7.27
2018-04-07T10:19:50.299Z,7.73
2018-04-07T10:22:17.976Z,7.40
2018-04-07T10:24:45.639Z,7.67
2018-04-07T10:27:13.361Z,7.30
2018-04-07T10:29:41.045Z,7.00
2018-04-07T10:32:08.851Z,6.93
2018-04-07T10:34:36.529Z,6.63
2018-04-07T10:37:04.240Z,6.97
2018-04-07T10:39:31.990Z,6.43
2018-04-07T10:41:59.701Z,7.13
2018-04-07T10:44:27.483Z,6.50
2018-04-07T10:46:55.211Z,7.07
2018-04-07T10:49:22.943Z,7.53
2018-04-07T10:51:50.649Z,6.90
2018-04-07T10:54:18.375Z,7.20
2018-04-07T10:56:46.047Z,7.43
2018-04-07T10:59:13.747Z,7.40
2018-04-07T11:01:41.457Z,7.20
2018-04-07T11:04:09.139Z,7.20
2018-04-07T11:06:36.874Z,6.63
2018-04-07T11:09:04.781Z,7.00
2018-04-07T11:11:32.506Z,7.50
2018-04-07T11:14:00.220Z,6.93
2018-04-07T11:16:27.974Z,5.93
2018-04-07T11:18:55.669Z,6.50
2018-04-07T11:21:23.396Z,6.30
2018-04-07T11:23:51.057Z,6.60
2018-04-07T11:26:18.831Z,6.20
2018-04-07T11:28:46.638Z,6.63
2018-04-07T11:31:14.314Z,5.73
2018-04-07T11:33:43.023Z,5.77
2018-04-07T11:36:19.144Z,5.60
2018-04-07T11:38:46.838Z,5.90
2018-04-07T11:41:14.673Z,6.10
2018-04-07T11:43:43.018Z,5.47
2018-04-07T11:46:10.766Z,5.60
2018-04-07T11:48:38.443Z,6.07
2018-04-07T11:51:11.853Z,5.83
2018-04-07T11:53:39.605Z,5.70
2018-04-07T11:56:07.292Z,6.07
2018-04-07T11:58:36.764Z,5.90
2018-04-07T12:01:04.475Z,5.70
2018-04-07T12:03:32.739Z,6.10
2018-04-07T12:06:05.297Z,5.20
2018-04-07T12:08:33.971Z,5.57
2018-04-07T12:11:02.463Z,6.23
2018-04-07T12:13:30.337Z,6.07
2018-04-07T12:15:58.053Z,5.80
2018-04-07T12:18:27.142Z,5.80
2018-04-07T12:20:54.849Z,6.00
2018-04-07T12:23:23.650Z,5.77
2018-04-07T12:25:51.423Z,5.60
2018-04-07T12:28:19.221Z,5.57
2018-04-07T12:30:47.010Z,5.47
2018-04-07T12:33:15.967Z,4.97
2018-04-07T12:35:43.650Z,4.63
2018-04-07T12:38:13.906Z,4.60
2018-04-07T12:40:41.706Z,5.00
2018-04-07T12:43:10.627Z,4.27
2018-04-07T12:45:38.317Z,4.10
2018-04-07T12:48:06.066Z,4.33
2018-04-07T12:53:08.247Z,4.90
2018-04-07T12:55:35.933Z,4.27
2018-04-07T12:58:04.316Z,4.77
2018-04-07T13:00:32.090Z,4.23
2018-04-07T13:02:59.882Z,4.40
2018-04-07T13:05:28.519Z,3.90
2018-04-07T13:08:03.725Z,4.70
2018-04-07T13:10:31.483Z,4.47
2018-04-07T13:13:00.314Z,4.17
2018-04-07T13:15:28.103Z,4.43
2018-04-07T13:17:55.842Z,4.13
2018-04-07T13:20:25.658Z,4.30
2018-04-07T13:22:54.107Z,4.30
2018-04-07T13:25:21.856Z,4.20
2018-04-07T13:27:49.737Z,4.83
2018-04-07T13:30:17.502Z,4.10
2018-04-07T13:32:45.238Z,3.70
2018-04-07T13:35:14.034Z,3.90
2018-04-07T13:37:41.788Z,3.90
2018-04-07T13:40:09.498Z,4.17
2018-04-07T13:42:37.221Z,4.07
2018-04-07T13:45:04.983Z,4.20
2018-04-07T13:47:35.366Z,3.80
2018-04-07T13:50:03.169Z,4.07
2018-04-07T13:52:30.871Z,3.77
2018-04-07T13:54:59.100Z,4.00
2018-04-07T13:57:27.075Z,3.33
2018-04-07T13:59:54.734Z,4.13
2018-04-07T14:02:22.444Z,3.70
2018-04-07T14:04:52.719Z,3.40
2018-04-07T14:07:20.794Z,3.93
2018-04-07T14:09:48.553Z,4.00
2018-04-07T14:12:16.271Z,4.20
2018-04-07T14:14:44.020Z,4.70
2018-04-07T14:17:12.419Z,5.10
2018-04-07T14:19:41.529Z,5.60
2018-04-07T14:22:15.978Z,5.50
2018-04-07T14:24:43.738Z,4.83
2018-04-07T14:27:11.470Z,5.37
2018-04-07T14:29:39.199Z,4.83
2018-04-07T14:32:09.001Z,5.50
2018-04-07T14:34:36.745Z,6.87
2018-04-07T14:37:04.428Z,5.50
2018-04-07T14:39:32.210Z,6.23
2018-04-07T14:41:59.990Z,6.23
2018-04-07T14:44:28.650Z,5.30
2018-04-07T14:46:56.377Z,5.13
2018-04-07T14:49:24.117Z,5.87
2018-04-07T14:51:51.810Z,5.13
2018-04-07T14:54:19.530Z,5.77
2018-04-07T14:56:47.310Z,5.70
2018-04-07T14:59:15.118Z,5.70
2018-04-07T15:01:42.860Z,6.17
2018-04-07T15:04:11.246Z,5.53
2018-04-07T15:06:40.327Z,6.13
2018-04-07T15:09:11.172Z,9.17
2018-04-07T15:11:38.916Z,5.37
2018-04-07T15:14:06.660Z,4.90
2018-04-07T15:16:34.488Z,6.40
2018-04-07T15:19:02.229Z,5.30
2018-04-07T15:21:30.007Z,5.13
2018-04-07T15:24:00.955Z,4.73
2018-04-07T15:26:32.483Z,4.93
2018-04-07T15:29:01.299Z,5.17
2018-04-07T15:31:29.027Z,4.47
2018-04-07T15:33:56.806Z,5.90
2018-04-07T15:36:24.569Z,5.00
2018-04-07T15:38:52.326Z,5.47
2018-04-07T15:41:20.002Z,5.03
2018-04-07T15:43:47.748Z,5.33
2018-04-07T15:46:15.421Z,6.17
2018-04-07T15:48:43.173Z,6.10
2018-04-07T15:51:10.976Z,5.97
2018-04-07T15:53:38.732Z,5.50
2018-04-07T15:56:06.891Z,5.57
2018-04-07T15:58:34.714Z,5.27
2018-04-07T16:01:02.597Z,5.60
2018-04-07T16:03:30.368Z,5.23
2018-04-07T16:06:00.203Z,5.47
2018-04-07T16:08:28.035Z,6.23
2018-04-07T16:10:55.798Z,5.57
2018-04-07T16:13:23.523Z,6.73
2018-04-07T16:15:51.220Z,6.00
2018-04-07T16:18:18.980Z,6.43
2018-04-07T16:20:46.821Z,5.63
2018-04-07T16:23:14.541Z,5.43
2018-04-07T16:25:42.268Z,5.27
2018-04-07T16:28:09.950Z,5.20
2018-04-07T16:30:37.756Z,5.47
2018-04-07T16:33:05.534Z,4.77
2018-04-07T16:35:33.355Z,4.53
2018-04-07T16:38:01.173Z,6.00
2018-04-07T16:40:28.964Z,5.30
2018-04-07T16:42:56.788Z,5.27
2018-04-07T16:45:24.578Z,5.47
2018-04-07T16:47:52.451Z,6.07
2018-04-07T16:50:20.272Z,5.37
2018-04-07T16:52:47.996Z,7.00
2018-04-07T16:55:15.756Z,7.13
2018-04-07T16:57:44.558Z,7.23
2018-04-07T17:00:12.296Z,7.40
2018-04-07T17:02:40.066Z,7.20
2018-04-07T17:05:07.795Z,9.03
2018-04-07T17:07:35.588Z,7.57
2018-04-07T17:10:03.342Z,7.80
2018-04-07T17:12:32.203Z,7.97
2018-04-07T17:15:00.017Z,8.40
2018-04-07T17:17:27.695Z,8.13
2018-04-07T17:19:55.427Z,8.23
2018-04-07T17:22:23.119Z,8.13
2018-04-07T17:24:50.888Z,8.50
2018-04-07T17:27:18.706Z,8.07
2018-04-07T17:29:46.399Z,8.97
2018-04-07T17:32:14.169Z,8.43
2018-04-07T17:34:41.874Z,8.27
2018-04-07T17:37:09.652Z,8.20
2018-04-07T17:39:37.367Z,7.47
2018-04-07T17:42:05.072Z,7.93
2018-04-07T17:44:32.793Z,8.23
2018-04-07T17:47:00.855Z,6.73
2018-04-07T17:49:28.547Z,6.87
2018-04-07T17:51:56.335Z,6.73
2018-04-07T17:54:24.106Z,6.63
2018-04-07T17:56:54.951Z,6.50
2018-04-07T17:59:22.895Z,6.00
2018-04-07T18:01:50.668Z,6.40
2018-04-07T18:04:19.645Z,6.73
2018-04-07T18:06:47.387Z,6.90
2018-04-07T18:09:15.136Z,8.67
2018-04-07T18:11:42.817Z,7.83
2018-04-07T18:14:10.641Z,8.63
2018-04-07T18:16:38.367Z,7.83
2018-04-07T18:19:06.220Z,8.63
2018-04-07T18:21:33.929Z,10.90
2018-04-07T18:24:01.704Z,10.97
2018-04-07T18:26:29.457Z,10.47
2018-04-07T18:28:57.263Z,10.00
2018-04-07T18:31:25.184Z,9.00
2018-04-07T18:33:52.921Z,7.63
2018-04-07T18:36:20.696Z,10.43
2018-04-07T18:38:48.505Z,9.43
2018-04-07T18:41:16.380Z,11.40
2018-04-07T18:43:44.155Z,13.20
2018-04-07T18:46:11.883Z,18.93
2018-04-07T18:48:39.634Z,19.93
2018-04-07T18:51:07.453Z,17.97
2018-04-07T18:53:35.455Z,18.90
2018-04-07T18:56:03.284Z,18.90
2018-04-07T18:58:31.120Z,18.10
2018-04-07T19:00:58.866Z,16.73
2018-04-07T19:03:26.712Z,17.37
2018-04-07T19:05:54.466Z,17.67
2018-04-07T19:08:22.280Z,20.60
2018-04-07T19:10:50.118Z,20.17
2018-04-07T19:13:17.901Z,20.23
2018-04-07T19:15:45.591Z,20.53
2018-04-07T19:18:13.328Z,21.00
2018-04-07T19:20:41.087Z,21.50
2018-04-07T19:23:08.794Z,20.83
2018-04-07T19:25:36.481Z,20.43
2018-04-07T19:28:04.261Z,21.87
2018-04-07T19:30:32.047Z,19.83
2018-04-07T19:32:59.777Z,20.80
2018-04-07T19:35:27.585Z,21.03
2018-04-07T19:37:55.386Z,16.70
2018-04-07T19:40:23.168Z,17.03
2018-04-07T19:42:50.948Z,17.03
2018-04-07T19:45:18.645Z,17.30
2018-04-07T19:47:46.457Z,18.70
2018-04-07T19:50:14.205Z,18.70
2018-04-07T19:52:41.913Z,17.00
2018-04-07T19:55:09.702Z,17.03
2018-04-07T19:57:37.521Z,17.77
2018-04-07T20:00:05.309Z,17.07
2018-04-07T20:02:33.017Z,17.47
2018-04-07T20:05:00.856Z,16.07
2018-04-07T20:07:28.549Z,16.70
2018-04-07T20:09:56.301Z,16.23
2018-04-07T20:12:24.172Z,18.43
2018-04-07T20:14:51.910Z,17.70
2018-04-07T20:17:19.628Z,17.73
2018-04-07T20:19:47.478Z,16.37
2018-04-07T20:22:15.863Z,16.93
2018-04-07T20:24:43.627Z,14.40
2018-04-07T20:27:11.347Z,13.80
2018-04-07T20:32:12.973Z,10.87
2018-04-07T20:34:40.689Z,11.47
2018-04-07T20:37:08.409Z,11.57
2018-04-07T20:39:36.588Z,11.00
2018-04-07T20:42:16.213Z,9.03
2018-04-07T20:44:43.977Z,9.73
2018-04-07T20:47:11.760Z,9.23
2018-04-07T20:49:39.506Z,9.17
2018-04-07T20:52:07.180Z,8.20
2018-04-07T20:54:34.906Z,8.10
2018-04-07T20:57:02.640Z,8.57
2018-04-07T20:59:30.325Z,8.83
2018-04-07T21:01:58.980Z,7.33
2018-04-07T21:04:26.820Z,8.13
2018-04-07T21:06:54.685Z,7.47
2018-04-07T21:09:23.421Z,8.37
2018-04-07T21:11:51.168Z,7.47
2018-04-07T21:14:18.842Z,7.57
2018-04-07T21:16:46.516Z,7.40
2018-04-07T21:19:14.263Z,7.60
2018-04-07T21:21:42.184Z,8.47
2018-04-07T21:24:09.899Z,8.33
2018-04-07T21:26:37.649Z,7.93
2018-04-07T21:29:05.428Z,7.33
2018-04-07T21:31:33.118Z,7.33
2018-04-07T21:34:00.894Z,7.37
2018-04-07T21:36:28.610Z,6.93
2018-04-07T21:38:56.376Z,8.37
2018-04-07T21:41:24.782Z,9.27
2018-04-07T21:43:52.625Z,8.23
2018-04-07T21:46:21.277Z,8.10
2018-04-07T21:48:49.949Z,8.60
2018-04-07T21:51:18.609Z,10.17
2018-04-07T21:53:47.156Z,10.63
2018-04-07T21:56:15.724Z,8.63
2018-04-07T21:58:43.516Z,9.70
2018-04-07T22:01:11.181Z,10.10
2018-04-07T22:03:38.916Z,9.00
2018-04-07T22:06:06.663Z,8.83
2018-04-07T22:08:34.461Z,9.27
2018-04-07T22:11:02.270Z,8.40
2018-04-07T22:13:30.056Z,8.83
2018-04-07T22:15:57.825Z,9.00
2018-04-07T22:18:25.549Z,8.77
2018-04-07T22:20:53.228Z,9.07
2018-04-07T22:23:21.019Z,10.37
2018-04-07T22:25:49.308Z,9.10
2018-04-07T22:28:17.126Z,9.10
2018-04-07T22:30:45.951Z,11.03
2018-04-07T22:33:13.760Z,9.83
2018-04-07T22:35:41.552Z,9.10
2018-04-07T22:38:09.364Z,9.77
2018-04-07T22:40:37.095Z,9.57
2018-04-07T22:43:04.863Z,9.57
2018-04-07T22:45:32.621Z,9.03
2018-04-07T22:48:00.348Z,9.60
2018-04-07T22:50:29.023Z,9.40
2018-04-07T22:52:56.893Z,9.80
2018-04-07T22:55:24.773Z,9.27
2018-04-07T22:57:52.488Z,9.87
2018-04-07T23:00:21.016Z,9.23
2018-04-07T23:02:48.836Z,9.17
2018-04-07T23:05:16.496Z,9.00
2018-04-07T23:07:44.226Z,9.37
2018-04-07T23:10:11.931Z,8.93
2018-04-07T23:12:39.812Z,9.63
2018-04-07T23:15:08.246Z,8.90
2018-04-07T23:17:36.004Z,9.30
2018-04-07T23:20:03.706Z,8.97
2018-04-07T23:22:31.403Z,9.10
2018-04-07T23:24:59.204Z,9.20
2018-04-07T23:27:27.128Z,9.03
2018-04-07T23:29:54.993Z,8.97
2018-04-07T23:32:22.716Z,9.10
2018-04-07T23:34:53.527Z,8.53
2018-04-07T23:37:21.609Z,8.97
2018-04-07T23:39:49.355Z,9.33
2018-04-07T23:42:17.166Z,9.70
2018-04-07T23:44:44.904Z,9.67
2018-04-07T23:47:13.586Z,10.87
2018-04-07T23:49:41.457Z,11.27
2018-04-07T23:52:09.202Z,11.47
2018-04-07T23:54:36.930Z,12.13
2018-04-07T23:57:04.722Z,13.00
2018-04-07T23:59:33.308Z,13.90
